createdAt,value
2019-04-07T00:02:17.708Z,9.43
2019-04-07T00:04:48.953Z,10.10
2019-04-07T00:07:20.088Z,9.43
2019-04-07T00:09:52.572Z,9.37
2019-04-07T00:12:23.338Z,9.13
2019-04-07T00:14:55.274Z,9.27
2019-04-07T00:17:27.220Z,8.80
2019-04-07T00:19:58.209Z,9.20
2019-04-07T00:22:29.077Z,9.33
2019-04-07T00:25:00.755Z,9.07
2019-04-07T00:27:32.042Z,8.80
2019-04-07T00:30:02.882Z,8.97
2019-04-07T00:32:33.807Z,8.87
2019-04-07T00:35:05.480Z,9.07
2019-04-07T00:37:37.346Z,9.10
2019-04-07T00:40:08.634Z,9.73
2019-04-07T00:42:39.474Z,9.63
2019-04-07T00:45:10.749Z,8.97
2019-04-07T00:47:41.985Z,9.37
2019-04-07T00:50:15.300Z,9.80
2019-04-07T00:52:46.845Z,8.70
2019-04-07T00:55:17.677Z,9.10
2019-04-07T00:57:48.639Z,8.57
2019-04-07T01:00:21.951Z,8.63
2019-04-07T01:02:52.965Z,9.17
2019-04-07T01:05:34.239Z,8.80
2019-04-07T01:07:56.566Z,8.47
2019-04-07T01:10:27.575Z,9.07
2019-04-07T01:12:58.973Z,8.37
2019-04-07T01:15:29.732Z,8.77
2019-04-07T01:18:01.156Z,9.10
2019-04-07T01:20:31.943Z,8.27
2019-04-07T01:23:02.858Z,8.73
2019-04-07T01:25:33.725Z,8.33
2019-04-07T01:28:04.752Z,8.70
2019-04-07T01:30:37.094Z,8.77
2019-04-07T01:33:08.710Z,8.90
2019-04-07T01:35:47.447Z,8.93
2019-04-07T01:38:12.655Z,8.93
2019-04-07T01:40:46.852Z,8.03
2019-04-07T01:43:32.698Z,8.40
2019-04-07T01:46:17.594Z,8.90
2019-04-07T01:48:59.467Z,8.67
2019-04-07T01:51:39.957Z,9.17
2019-04-07T01:54:29.869Z,8.90
2019-04-07T01:57:15.616Z,8.60
2019-04-07T02:00:11.134Z,8.87
2019-04-07T02:03:02.393Z,8.90
2019-04-07T02:05:59.173Z,9.00
2019-04-07T02:08:42.859Z,8.43
2019-04-07T02:11:31.031Z,8.70
2019-04-07T02:14:11.227Z,9.03
2019-04-07T02:16:59.892Z,9.40
2019-04-07T02:19:37.103Z,8.77
2019-04-07T02:22:34.391Z,8.93
2019-04-07T02:25:39.755Z,8.70
2019-04-07T02:28:17.695Z,8.63
2019-04-07T02:31:11.632Z,8.73
2019-04-07T02:34:03.289Z,9.07
2019-04-07T02:36:44.738Z,8.80
2019-04-07T02:39:33.360Z,8.93
2019-04-07T02:42:15.191Z,9.10
2019-04-07T02:44:57.150Z,8.90
2019-04-07T02:47:35.657Z,9.57
2019-04-07T02:50:30.198Z,9.20
2019-04-07T02:53:22.974Z,8.87
2019-04-07T02:56:11.515Z,8.73
2019-04-07T02:59:10.408Z,9.60
2019-04-07T03:01:59.466Z,9.20
2019-04-07T03:04:44.463Z,8.63
2019-04-07T03:07:23.801Z,9.80
2019-04-07T03:10:04.403Z,8.60
2019-04-07T03:12:53.161Z,8.63
2019-04-07T03:15:36.337Z,9.10
2019-04-07T03:18:29.315Z,8.80
2019-04-07T03:21:09.592Z,8.77
2019-04-07T03:23:58.592Z,8.53
2019-04-07T03:26:47.842Z,8.90
2019-04-07T03:29:35.004Z,9.30
2019-04-07T03:32:26.383Z,9.27
2019-04-07T03:35:17.364Z,8.60
2019-04-07T03:38:13.998Z,8.40
2019-04-07T03:40:49.755Z,8.83
2019-04-07T03:43:31.054Z,9.23
2019-04-07T03:46:14.323Z,8.93
2019-04-07T03:48:49.828Z,9.27
2019-04-07T03:51:36.723Z,8.57
2019-04-07T03:54:24.218Z,8.77
2019-04-07T03:57:13.161Z,9.17
2019-04-07T04:00:18.869Z,9.07
2019-04-07T04:03:08.850Z,9.33
2019-04-07T04:05:57.314Z,9.07
2019-04-07T04:08:45.752Z,8.83
2019-04-07T04:11:34.298Z,9.77
2019-04-07T04:14:16.625Z,9.37
2019-04-07T04:16:50.911Z,10.50
2019-04-07T04:19:22.670Z,9.10
2019-04-07T04:21:54.205Z,9.73
2019-04-07T04:24:26.492Z,9.87
2019-04-07T04:26:57.873Z,9.80
2019-04-07T04:29:29.790Z,11.90
2019-04-07T04:32:01.521Z,11.40
2019-04-07T04:34:32.967Z,10.90
2019-04-07T04:37:03.988Z,11.17
2019-04-07T04:39:35.503Z,9.63
2019-04-07T04:42:07.080Z,10.53
2019-04-07T04:44:38.057Z,10.03
2019-04-07T04:47:08.923Z,9.80
2019-04-07T04:49:40.382Z,9.17
2019-04-07T04:52:11.590Z,8.67
2019-04-07T04:54:42.616Z,8.27
2019-04-07T04:57:14.247Z,9.10
2019-04-07T04:59:45.224Z,9.43
2019-04-07T05:02:17.143Z,9.47
2019-04-07T05:04:48.015Z,11.27
2019-04-07T05:07:19.787Z,16.00
2019-04-07T05:09:53.266Z,19.17
2019-04-07T05:12:23.316Z,19.10
2019-04-07T05:14:54.850Z,19.53
2019-04-07T05:17:26.070Z,20.77
2019-04-07T05:19:57.652Z,22.70
2019-04-07T05:22:29.086Z,22.77
2019-04-07T05:24:59.924Z,22.57
2019-04-07T05:27:30.811Z,23.07
2019-04-07T05:30:02.459Z,22.50
2019-04-07T05:32:33.557Z,22.00
2019-04-07T05:35:05.883Z,16.83
2019-04-07T05:37:37.267Z,18.53
2019-04-07T05:40:08.207Z,20.40
2019-04-07T05:42:40.097Z,22.50
2019-04-07T05:45:11.542Z,23.13
2019-04-07T05:47:47.823Z,23.87
2019-04-07T05:50:15.486Z,24.10
2019-04-07T05:52:46.617Z,24.80
2019-04-07T05:55:20.600Z,24.17
2019-04-07T05:57:50.147Z,24.23
2019-04-07T06:00:21.002Z,24.47
2019-04-07T06:02:52.777Z,24.93
2019-04-07T06:05:24.448Z,25.53
2019-04-07T06:07:56.946Z,25.83
2019-04-07T06:10:29.716Z,25.90
2019-04-07T06:13:00.832Z,26.40
2019-04-07T06:15:32.500Z,26.33
2019-04-07T06:18:04.102Z,27.00
2019-04-07T06:20:35.101Z,27.43
2019-04-07T06:23:06.182Z,27.03
2019-04-07T06:25:41.529Z,28.13
2019-04-07T06:28:13.918Z,27.53
2019-04-07T06:30:44.033Z,26.60
2019-04-07T06:33:15.634Z,28.10
2019-04-07T06:35:47.684Z,26.97
2019-04-07T06:38:30.509Z,27.70
2019-04-07T06:40:56.535Z,26.60
2019-04-07T06:43:25.805Z,26.40
2019-04-07T06:46:12.909Z,27.37
2019-04-07T06:49:11.667Z,26.50
2019-04-07T06:51:49.124Z,26.80
2019-04-07T06:54:44.920Z,27.23
2019-04-07T06:57:23.553Z,26.93
2019-04-07T07:00:09.045Z,26.97
2019-04-07T07:03:09.495Z,26.33
2019-04-07T07:06:01.147Z,26.20
2019-04-07T07:08:45.210Z,25.73
2019-04-07T07:11:31.094Z,25.07
2019-04-07T07:14:32.877Z,25.27
2019-04-07T07:17:13.113Z,24.87
2019-04-07T07:19:56.612Z,23.93
2019-04-07T07:22:40.236Z,23.23
2019-04-07T07:25:11.258Z,24.33
2019-04-07T07:27:43.056Z,24.30
2019-04-07T07:30:17.463Z,22.37
2019-04-07T07:32:48.578Z,22.37
2019-04-07T07:35:19.553Z,22.73
2019-04-07T07:37:51.315Z,22.90
2019-04-07T07:40:22.239Z,22.03
2019-04-07T07:42:55.437Z,22.90
2019-04-07T07:45:26.169Z,23.23
2019-04-07T07:47:57.705Z,23.87
2019-04-07T07:50:30.006Z,24.03
2019-04-07T07:53:01.394Z,23.93
2019-04-07T07:55:36.507Z,24.07
2019-04-07T07:58:04.818Z,23.97
2019-04-07T08:00:39.851Z,24.13
2019-04-07T08:03:08.571Z,22.03
2019-04-07T08:05:39.322Z,22.83
2019-04-07T08:08:10.358Z,22.90
2019-04-07T08:10:41.398Z,20.80
2019-04-07T08:13:12.564Z,22.73
2019-04-07T08:15:43.746Z,22.57
2019-04-07T08:18:16.609Z,22.87
2019-04-07T08:20:49.073Z,21.97
2019-04-07T08:23:21.071Z,22.77
2019-04-07T08:25:53.979Z,21.50
2019-04-07T08:28:24.541Z,22.30
2019-04-07T08:30:55.695Z,22.57
2019-04-07T08:33:28.808Z,22.87
2019-04-07T08:36:00.040Z,21.53
2019-04-07T08:38:31.121Z,21.83
2019-04-07T08:41:02.104Z,22.10
2019-04-07T08:43:33.023Z,19.83
2019-04-07T08:46:05.028Z,19.20
2019-04-07T08:48:37.405Z,18.57
2019-04-07T08:51:08.636Z,18.23
2019-04-07T08:53:43.749Z,17.20
2019-04-07T08:56:12.966Z,16.20
2019-04-07T08:58:43.850Z,13.97
2019-04-07T09:01:17.362Z,9.30
2019-04-07T09:03:48.590Z,5.77
2019-04-07T09:06:19.645Z,6.80
2019-04-07T09:08:51.042Z,5.17
2019-04-07T09:11:23.663Z,4.87
2019-04-07T09:13:55.965Z,5.20
2019-04-07T09:16:48.085Z,4.87
2019-04-07T09:19:36.810Z,5.50
2019-04-07T09:22:32.747Z,5.17
2019-04-07T09:25:22.545Z,5.00
2019-04-07T09:28:21.252Z,4.83
2019-04-07T09:31:12.160Z,4.77
2019-04-07T09:33:52.821Z,4.97
2019-04-07T09:36:51.708Z,6.00
2019-04-07T09:39:33.993Z,5.77
2019-04-07T09:42:24.381Z,9.70
2019-04-07T09:45:13.863Z,4.70
2019-04-07T09:47:57.543Z,4.60
2019-04-07T09:50:51.412Z,4.50
2019-04-07T09:53:33.788Z,4.10
2019-04-07T09:56:32.721Z,4.20
2019-04-07T09:59:28.676Z,4.47
2019-04-07T10:02:25.064Z,4.70
2019-04-07T10:05:24.024Z,4.90
2019-04-07T10:08:12.231Z,4.60
2019-04-07T10:10:53.820Z,4.43
2019-04-07T10:13:42.533Z,7.87
2019-04-07T10:16:42.471Z,6.43
2019-04-07T10:19:31.738Z,9.03
2019-04-07T10:22:34.128Z,8.30
2019-04-07T10:25:34.308Z,9.60
2019-04-07T10:28:26.485Z,8.50
2019-04-07T10:31:20.762Z,8.50
2019-04-07T10:34:05.181Z,8.80
2019-04-07T10:36:57.899Z,9.57
2019-04-07T10:39:38.165Z,8.67
2019-04-07T10:42:28.267Z,8.27
2019-04-07T10:45:17.798Z,8.63
2019-04-07T10:48:11.013Z,8.70
2019-04-07T10:51:16.302Z,10.40
2019-04-07T10:53:57.278Z,9.20
2019-04-07T10:56:48.022Z,10.70
2019-04-07T10:59:36.899Z,9.58
2019-04-07T11:02:15.422Z,9.73
2019-04-07T11:05:09.785Z,9.23
2019-04-07T11:07:54.689Z,8.55
2019-04-07T11:10:43.100Z,8.50
2019-04-07T11:13:32.641Z,7.85
2019-04-07T11:16:15.081Z,8.53
2019-04-07T11:19:07.939Z,9.53
2019-04-07T11:21:58.012Z,9.33
2019-04-07T11:24:41.374Z,8.90
2019-04-07T11:27:43.841Z,8.70
2019-04-07T11:30:21.477Z,7.67
2019-04-07T11:33:08.245Z,9.35
2019-04-07T11:35:44.510Z,9.15
2019-04-07T11:38:26.500Z,9.28
2019-04-07T11:41:27.339Z,8.95
2019-04-07T11:44:15.114Z,8.05
2019-04-07T11:46:54.839Z,7.60
2019-04-07T11:49:44.760Z,6.95
2019-04-07T11:52:29.724Z,6.33
2019-04-07T11:55:11.899Z,7.27
2019-04-07T11:58:06.667Z,6.80
2019-04-07T12:00:51.381Z,6.95
2019-04-07T12:03:29.912Z,6.40
2019-04-07T12:06:13.597Z,6.10
2019-04-07T12:08:51.993Z,6.12
2019-04-07T12:11:36.995Z,5.50
2019-04-07T12:14:17.031Z,5.45
2019-04-07T12:17:15.098Z,6.28
2019-04-07T12:20:27.396Z,7.25
2019-04-07T12:23:08.304Z,6.27
2019-04-07T12:25:50.293Z,6.58
2019-04-07T12:28:49.132Z,5.62
2019-04-07T12:31:37.493Z,5.95
2019-04-07T12:34:18.974Z,6.05
2019-04-07T12:37:06.859Z,6.67
2019-04-07T12:39:55.514Z,6.47
2019-04-07T12:42:42.944Z,5.93
2019-04-07T12:45:29.911Z,6.30
2019-04-07T12:48:23.144Z,7.57
2019-04-07T12:51:13.648Z,6.80
2019-04-07T12:53:49.017Z,6.45
2019-04-07T12:56:36.195Z,7.47
2019-04-07T12:59:26.048Z,7.40
2019-04-07T13:02:06.865Z,6.75
2019-04-07T13:04:44.693Z,6.70
2019-04-07T13:07:38.626Z,6.45
2019-04-07T13:10:30.279Z,5.90
2019-04-07T13:13:13.926Z,5.60
2019-04-07T13:16:25.370Z,6.37
2019-04-07T13:19:02.262Z,6.13
2019-04-07T13:21:45.576Z,5.62
2019-04-07T13:24:31.165Z,5.60
2019-04-07T13:27:28.495Z,5.60
2019-04-07T13:30:17.071Z,5.75
2019-04-07T13:32:57.544Z,5.37
2019-04-07T13:35:53.595Z,4.97
2019-04-07T13:38:37.213Z,5.20
2019-04-07T13:41:47.571Z,5.20
2019-04-07T13:44:38.823Z,4.83
2019-04-07T13:47:23.162Z,4.90
2019-04-07T13:50:14.442Z,5.08
2019-04-07T13:52:58.988Z,5.05
2019-04-07T13:55:46.336Z,5.05
2019-04-07T13:58:33.025Z,5.12
2019-04-07T14:01:19.293Z,5.30
2019-04-07T14:04:10.490Z,6.43
2019-04-07T14:07:02.396Z,5.37
2019-04-07T14:10:01.432Z,5.17
2019-04-07T14:13:04.157Z,4.67
2019-04-07T14:15:57.626Z,5.25
2019-04-07T14:18:46.850Z,6.30
2019-04-07T14:21:35.164Z,5.13
2019-04-07T14:24:33.926Z,4.83
2019-04-07T14:27:12.703Z,6.15
2019-04-07T14:29:51.253Z,4.70
2019-04-07T14:32:48.378Z,4.35
2019-04-07T14:35:45.925Z,4.80
2019-04-07T14:38:26.703Z,4.47
2019-04-07T14:41:20.538Z,4.50
2019-04-07T14:44:13.953Z,4.50
2019-04-07T14:47:08.879Z,4.60
2019-04-07T14:49:57.588Z,4.80
2019-04-07T14:52:50.133Z,5.10
2019-04-07T14:55:39.916Z,5.00
2019-04-07T14:58:29.145Z,4.40
2019-04-07T15:01:22.506Z,5.17
2019-04-07T15:03:54.523Z,5.70
2019-04-07T15:06:28.493Z,5.30
2019-04-07T15:09:13.374Z,4.90
2019-04-07T15:12:15.890Z,4.57
2019-04-07T15:14:39.357Z,4.33
2019-04-07T15:17:10.983Z,4.77
2019-04-07T15:19:42.235Z,4.43
2019-04-07T15:22:13.285Z,5.17
2019-04-07T15:24:44.311Z,4.93
2019-04-07T15:27:15.575Z,5.87
2019-04-07T15:29:47.093Z,5.70
2019-04-07T15:32:18.176Z,5.10
2019-04-07T15:34:49.191Z,4.93
2019-04-07T15:37:23.540Z,4.90
2019-04-07T15:39:53.107Z,4.77
2019-04-07T15:42:35.129Z,5.40
2019-04-07T15:44:57.298Z,7.87
2019-04-07T15:47:28.737Z,9.98
2019-04-07T15:50:00.627Z,6.97
2019-04-07T15:52:32.005Z,6.37
2019-04-07T15:55:03.025Z,7.83
2019-04-07T15:57:35.045Z,5.40
2019-04-07T16:00:06.580Z,5.73
2019-04-07T16:02:40.927Z,6.17
2019-04-07T16:05:10.511Z,5.63
2019-04-07T16:07:41.821Z,4.78
2019-04-07T16:10:13.557Z,5.70
2019-04-07T16:12:49.920Z,5.47
2019-04-07T16:15:18.240Z,4.97
2019-04-07T16:17:50.299Z,4.50
2019-04-07T16:20:25.048Z,4.40
2019-04-07T16:22:53.802Z,4.73
2019-04-07T16:25:27.528Z,4.90
2019-04-07T16:27:58.667Z,4.40
2019-04-07T16:30:30.430Z,5.60
2019-04-07T16:33:04.072Z,5.10
2019-04-07T16:35:34.613Z,5.77
2019-04-07T16:38:05.781Z,4.58
2019-04-07T16:40:40.454Z,5.03
2019-04-07T16:43:14.498Z,4.23
2019-04-07T16:45:45.606Z,5.60
2019-04-07T16:48:16.206Z,6.17
2019-04-07T16:50:51.836Z,6.27
2019-04-07T16:53:20.515Z,6.63
2019-04-07T16:55:54.287Z,6.13
2019-04-07T16:58:24.419Z,6.23
2019-04-07T17:00:55.965Z,6.10
2019-04-07T17:03:28.900Z,5.87
2019-04-07T17:06:02.036Z,6.57
2019-04-07T17:08:33.871Z,6.30
2019-04-07T17:11:07.702Z,6.60
2019-04-07T17:13:41.436Z,6.53
2019-04-07T17:16:12.197Z,7.23
2019-04-07T17:18:44.906Z,9.03
2019-04-07T17:21:17.019Z,9.63
2019-04-07T17:23:47.874Z,9.23
2019-04-07T17:26:21.390Z,8.97
2019-04-07T17:28:51.598Z,10.03
2019-04-07T17:31:22.695Z,11.60
2019-04-07T17:33:55.542Z,11.13
2019-04-07T17:36:26.819Z,11.13
2019-04-07T17:39:26.087Z,10.83
2019-04-07T17:41:57.897Z,9.73
2019-04-07T17:44:53.714Z,9.80
2019-04-07T17:47:32.738Z,10.27
2019-04-07T17:50:31.031Z,9.43
2019-04-07T17:53:11.653Z,8.93
2019-04-07T17:55:58.973Z,9.47
2019-04-07T17:58:48.067Z,9.73
2019-04-07T18:01:30.056Z,9.77
2019-04-07T18:04:20.852Z,9.50
2019-04-07T18:07:10.175Z,10.17
2019-04-07T18:10:03.554Z,10.60
2019-04-07T18:12:59.968Z,10.43
2019-04-07T18:15:47.207Z,11.20
2019-04-07T18:18:31.661Z,10.77
2019-04-07T18:21:11.700Z,13.37
2019-04-07T18:23:59.839Z,13.27
2019-04-07T18:26:52.554Z,13.47
2019-04-07T18:29:36.367Z,12.70
2019-04-07T18:32:36.248Z,13.47
2019-04-07T18:35:26.443Z,13.37
2019-04-07T18:38:10.240Z,13.17
2019-04-07T18:41:00.761Z,15.10
2019-04-07T18:44:01.903Z,15.20
2019-04-07T18:46:49.982Z,14.70
2019-04-07T18:49:49.890Z,14.30
2019-04-07T18:52:29.270Z,14.50
2019-04-07T18:55:22.462Z,15.60
2019-04-07T18:58:03.146Z,13.77
2019-04-07T19:00:46.031Z,15.07
2019-04-07T19:03:26.483Z,14.03
2019-04-07T19:06:20.886Z,16.43
2019-04-07T19:09:16.701Z,15.63
2019-04-07T19:12:16.710Z,14.97
2019-04-07T19:15:06.936Z,14.93
2019-04-07T19:17:50.420Z,17.13
2019-04-07T19:20:40.701Z,13.10
2019-04-07T19:23:48.686Z,14.30
2019-04-07T19:26:54.555Z,17.63
2019-04-07T19:29:46.034Z,14.80
2019-04-07T19:32:38.866Z,15.97
2019-04-07T19:35:29.426Z,13.67
2019-04-07T19:38:22.441Z,15.10
2019-04-07T19:41:17.265Z,16.17
2019-04-07T19:43:54.015Z,16.03
2019-04-07T19:46:50.339Z,15.37
2019-04-07T19:49:34.729Z,16.07
2019-04-07T19:52:14.064Z,16.03
2019-04-07T19:54:55.074Z,16.20
2019-04-07T19:58:00.934Z,15.43
2019-04-07T20:00:56.771Z,15.10
2019-04-07T20:03:47.254Z,15.60
2019-04-07T20:06:58.178Z,14.93
2019-04-07T20:09:50.414Z,15.57
2019-04-07T20:12:42.935Z,15.23
2019-04-07T20:15:38.998Z,16.33
2019-04-07T20:18:31.900Z,15.73
2019-04-07T20:21:16.395Z,16.30
2019-04-07T20:24:20.236Z,17.30
2019-04-07T20:27:16.166Z,16.63
2019-04-07T20:29:56.205Z,16.67
2019-04-07T20:32:44.767Z,16.90
2019-04-07T20:35:37.915Z,15.80
2019-04-07T20:38:25.573Z,15.80
2019-04-07T20:41:16.110Z,17.27
2019-04-07T20:43:59.349Z,17.93
2019-04-07T20:46:57.000Z,17.43
2019-04-07T20:49:35.711Z,17.33
2019-04-07T20:52:26.509Z,17.33
2019-04-07T20:55:28.777Z,16.53
2019-04-07T20:58:23.310Z,17.40
2019-04-07T21:01:22.175Z,17.30
2019-04-07T21:04:26.076Z,17.77
2019-04-07T21:07:19.194Z,15.07
2019-04-07T21:10:04.508Z,14.63
2019-04-07T21:13:00.234Z,15.00
2019-04-07T21:16:01.988Z,14.23
2019-04-07T21:18:54.571Z,12.00
2019-04-07T21:21:47.898Z,11.77
2019-04-07T21:24:43.850Z,11.43
2019-04-07T21:27:20.699Z,10.87
2019-04-07T21:30:00.286Z,10.67
2019-04-07T21:32:39.898Z,10.40
2019-04-07T21:35:34.743Z,10.00
2019-04-07T21:38:26.130Z,10.00
2019-04-07T21:41:16.751Z,9.30
2019-04-07T21:44:05.933Z,9.50
2019-04-07T21:46:54.776Z,10.00
2019-04-07T21:49:39.408Z,9.87
2019-04-07T21:52:43.033Z,9.10
2019-04-07T21:55:23.595Z,8.23
2019-04-07T21:58:12.412Z,7.63
2019-04-07T22:00:58.572Z,8.40
2019-04-07T22:03:48.413Z,8.50
2019-04-07T22:06:37.338Z,7.93
2019-04-07T22:09:19.412Z,8.30
2019-04-07T22:11:51.544Z,8.50
2019-04-07T22:14:23.453Z,8.13
2019-04-07T22:16:54.741Z,8.40
2019-04-07T22:19:25.566Z,8.17
2019-04-07T22:21:56.978Z,8.23
2019-04-07T22:24:31.321Z,8.70
2019-04-07T22:27:01.427Z,8.37
2019-04-07T22:29:34.961Z,8.47
2019-04-07T22:32:06.126Z,8.60
2019-04-07T22:34:37.695Z,8.33
2019-04-07T22:37:08.798Z,8.17
2019-04-07T22:39:39.764Z,8.60
2019-04-07T22:42:12.959Z,7.93
2019-04-07T22:44:43.242Z,8.37
2019-04-07T22:47:15.401Z,8.30
2019-04-07T22:49:46.902Z,8.70
2019-04-07T22:52:18.880Z,7.73
2019-04-07T22:54:49.936Z,7.60
2019-04-07T22:57:21.896Z,8.10
2019-04-07T22:59:53.028Z,8.07
2019-04-07T23:02:24.166Z,7.60
2019-04-07T23:04:55.909Z,7.30
2019-04-07T23:07:27.629Z,7.13
2019-04-07T23:09:58.740Z,6.93
2019-04-07T23:12:29.499Z,7.60
2019-04-07T23:15:00.276Z,6.83
2019-04-07T23:17:31.046Z,6.70
2019-04-07T23:20:02.395Z,6.77
2019-04-07T23:22:34.015Z,6.73
2019-04-07T23:25:05.822Z,7.03
2019-04-07T23:27:36.560Z,6.43
2019-04-07T23:30:08.841Z,6.63
2019-04-07T23:32:39.991Z,6.57
2019-04-07T23:35:11.252Z,6.63
2019-04-07T23:37:42.030Z,6.57
2019-04-07T23:40:12.959Z,6.47
2019-04-07T23:42:44.580Z,6.63
2019-04-07T23:45:16.579Z,6.80
2019-04-07T23:47:47.727Z,6.20
2019-04-07T23:50:18.823Z,6.40
2019-04-07T23:52:50.316Z,7.00
2019-04-07T23:55:21.890Z,7.00
2019-04-07T23:57:54.194Z,6.87
